Ruy Barbosa, Brazil
Current Conditions -  °F | °C
As of 10:00 AM on Saturday 25 Oct 2014 (Local Time) from SBNT Reporting Station
Scattered Clouds Scattered Clouds  
Wind Chill: 82°   Ceiling: Unl
Heat Index: 85°   Visibility: 6mi
Dew Point: 66°   Wind: 18mph
Humidity: 58%   Direction: 120°ESE
Pressure: 29.94"   Gusts: NA
Location:  5.88°S, 35.93°W
Report Text: SBNT 251300Z 12016KT 9999 SCT030 28/19 Q1014
Loading
Personal Weather Stations






























Interactive Weather Map
Tropical Storm Tracking
New forecast layout! Learn more

10-Day Weather Forecast

Advertisements
Track Severe Weather on mobile